Time;durP1;ratioP1;P1;durP2;ratioP2;P2;SDS_P1;SDS_P2;PMS_P1;PMS_P2;Temp;Humidity;BMP_temperature;BMP_pressure;BME280_temperature;BME280_humidity;BME280_pressure;Samples;Min_cycle;Max_cycle;Signal;HPM_P1;HPM_P2
2021/11/10 00:00:21;;;;;;;15.80;4.03;;;10.10;99.90;;;;;;5026897;28;20316;-76
2021/11/10 00:02:47;;;;;;;15.13;3.97;;;10.10;99.90;;;;;;5017491;28;20028;-77
2021/11/10 00:05:14;;;;;;;16.17;3.85;;;10.00;99.90;;;;;;5032754;28;20116;-77
2021/11/10 00:07:41;;;;;;;17.27;3.60;;;10.00;99.90;;;;;;5018296;28;20033;-76
2021/11/10 00:10:09;;;;;;;15.35;4.30;;;10.00;99.90;;;;;;5034939;28;20362;-77
2021/11/10 00:12:35;;;;;;;20.98;4.35;;;10.10;99.90;;;;;;5002409;28;20120;-76
2021/11/10 00:15:01;;;;;;;19.35;3.83;;;10.00;99.90;;;;;;5015736;28;20493;-75
2021/11/10 00:17:27;;;;;;;14.88;4.53;;;10.00;99.90;;;;;;5035094;28;20036;-75
2021/11/10 00:19:53;;;;;;;16.80;4.35;;;10.00;99.90;;;;;;5035490;28;20033;-74
2021/11/10 00:22:18;;;;;;;20.25;4.60;;;10.00;99.90;;;;;;5031703;28;20029;-74
2021/11/10 00:24:44;;;;;;;14.70;4.50;;;10.00;99.90;;;;;;5035303;28;20026;-74
2021/11/10 00:27:09;;;;;;;19.80;4.82;;;10.00;99.90;;;;;;5034801;28;20025;-74
2021/11/10 00:29:35;;;;;;;12.25;3.85;;;10.00;99.90;;;;;;5035385;28;20033;-74
2021/11/10 00:32:00;;;;;;;16.88;4.32;;;10.00;99.90;;;;;;5001661;28;20117;-74
2021/11/10 00:34:26;;;;;;;21.42;4.75;;;10.00;99.90;;;;;;5018214;28;20063;-75
2021/11/10 00:36:52;;;;;;;18.58;3.70;;;10.00;99.90;;;;;;5034668;28;20036;-75
2021/11/10 00:39:17;;;;;;;17.90;4.43;;;9.90;99.90;;;;;;5017063;28;20021;-75
2021/11/10 00:41:43;;;;;;;22.48;4.63;;;9.90;99.90;;;;;;5035324;28;20033;-75
2021/11/10 00:44:09;;;;;;;19.52;4.57;;;9.90;99.90;;;;;;5034741;28;20100;-75
2021/11/10 00:46:34;;;;;;;23.42;5.22;;;9.90;99.90;;;;;;5028632;28;20176;-75
2021/11/10 00:49:00;;;;;;;20.75;5.47;;;9.90;99.90;;;;;;5035398;28;20029;-76
2021/11/10 00:51:27;;;;;;;15.57;4.82;;;9.90;99.90;;;;;;5034561;28;20057;-75
2021/11/10 00:53:53;;;;;;;24.50;5.53;;;9.90;99.90;;;;;;5034860;28;20037;-75
2021/11/10 00:56:18;;;;;;;16.27;4.90;;;9.90;99.90;;;;;;5032580;28;20033;-75
2021/11/10 00:58:44;;;;;;;22.45;5.30;;;9.90;99.90;;;;;;5005938;28;20104;-75
2021/11/10 01:01:10;;;;;;;16.63;4.13;;;9.90;99.90;;;;;;5035243;28;20467;-75
2021/11/10 01:03:35;;;;;;;17.45;4.05;;;9.90;99.90;;;;;;5025905;28;20021;-75
2021/11/10 01:06:02;;;;;;;18.10;5.38;;;9.90;99.90;;;;;;5033725;28;20037;-75
2021/11/10 01:08:28;;;;;;;33.10;5.95;;;9.90;99.90;;;;;;5033693;28;20061;-75
2021/11/10 01:10:56;;;;;;;18.98;3.90;;;9.90;99.90;;;;;;5034167;28;20052;-75
2021/11/10 01:13:23;;;;;;;20.20;5.10;;;9.90;99.90;;;;;;5016643;28;20104;-74
2021/11/10 01:15:49;;;;;;;18.52;3.97;;;9.90;99.90;;;;;;5030447;28;20027;-74
2021/11/10 01:18:14;;;;;;;26.15;4.85;;;9.90;99.90;;;;;;5016161;28;20033;-75
2021/11/10 01:20:40;;;;;;;31.08;4.65;;;9.90;99.90;;;;;;5008759;28;20509;-75
2021/11/10 01:23:06;;;;;;;12.82;3.78;;;9.90;99.90;;;;;;5023243;28;20029;-75
2021/11/10 01:25:33;;;;;;;16.70;4.32;;;9.90;99.90;;;;;;5015782;28;20125;-75
2021/11/10 01:27:59;;;;;;;22.73;4.70;;;9.90;99.90;;;;;;5016055;28;20056;-75
2021/11/10 01:30:24;;;;;;;14.13;4.20;;;9.90;99.90;;;;;;5029305;28;20049;-75
2021/11/10 01:32:50;;;;;;;9.20;3.42;;;9.90;99.90;;;;;;5013494;28;20068;-75
2021/11/10 01:35:17;;;;;;;19.42;4.20;;;9.90;99.90;;;;;;5013169;28;20128;-76
2021/11/10 01:37:43;;;;;;;20.65;4.47;;;9.80;99.90;;;;;;5014119;28;20026;-76
2021/11/10 01:40:09;;;;;;;23.50;6.10;;;9.80;99.90;;;;;;5021876;28;20171;-76
2021/11/10 01:42:40;;;;;;;15.93;3.63;;;9.80;99.90;;;;;;5016293;28;20018;-76
2021/11/10 01:45:07;;;;;;;19.67;5.25;;;9.70;99.90;;;;;;5015784;28;20063;-76
2021/11/10 01:47:33;;;;;;;18.42;4.85;;;9.70;99.90;;;;;;5033540;28;20029;-76
2021/11/10 01:49:59;;;;;;;16.75;4.38;;;9.60;99.90;;;;;;5009117;28;20044;-76
2021/11/10 01:52:24;;;;;;;16.42;4.78;;;9.60;99.90;;;;;;5016081;28;20021;-76
2021/11/10 01:54:50;;;;;;;15.10;3.47;;;9.50;99.90;;;;;;5029229;28;20018;-76
2021/11/10 01:57:16;;;;;;;17.42;4.05;;;9.40;99.90;;;;;;5023777;28;20080;-76
2021/11/10 01:59:49;;;;;;;16.38;4.30;;;9.30;99.90;;;;;;5033718;28;20025;-76
2021/11/10 02:02:25;;;;;;;22.10;4.75;;;9.20;99.90;;;;;;5023777;28;20479;-76
2021/11/10 02:04:52;;;;;;;15.88;3.90;;;9.10;99.90;;;;;;5025298;28;20537;-76
2021/11/10 02:07:19;;;;;;;21.42;3.70;;;9.10;99.90;;;;;;5033578;28;20109;-76
2021/11/10 02:09:46;;;;;;;15.73;4.95;;;9.10;99.90;;;;;;5026010;28;20030;-75
2021/11/10 02:12:12;;;;;;;16.05;5.20;;;9.00;99.90;;;;;;5022272;28;20029;-76
2021/11/10 02:14:39;;;;;;;14.82;3.97;;;9.00;99.90;;;;;;5033430;28;20032;-76
2021/11/10 02:17:07;;;;;;;18.65;4.10;;;9.00;99.90;;;;;;5020367;28;20479;-76
2021/11/10 02:19:33;;;;;;;17.58;4.80;;;9.10;99.90;;;;;;4996346;28;20018;-77
2021/11/10 02:22:01;;;;;;;18.38;5.00;;;9.10;99.90;;;;;;5031830;28;20025;-77
2021/11/10 02:24:28;;;;;;;17.55;4.90;;;9.10;99.90;;;;;;5033475;28;20018;-77
2021/11/10 02:26:54;;;;;;;22.00;5.28;;;9.10;99.90;;;;;;5032656;28;20533;-77
2021/11/10 02:29:23;;;;;;;18.70;5.00;;;9.10;99.90;;;;;;5033443;28;20025;-77
2021/11/10 02:31:50;;;;;;;28.85;5.78;;;9.10;99.90;;;;;;5021131;28;20389;-77
2021/11/10 02:34:16;;;;;;;21.95;6.18;;;9.10;99.90;;;;;;5015900;28;20071;-77
2021/11/10 02:36:42;;;;;;;20.63;6.13;;;9.00;99.90;;;;;;5023122;28;20057;-77
2021/11/10 02:39:22;;;;;;;18.73;5.55;;;9.10;99.90;;;;;;4996663;28;20025;-77
2021/11/10 02:41:49;;;;;;;20.58;5.47;;;9.00;99.90;;;;;;5016483;28;20029;-76
2021/11/10 02:44:19;;;;;;;19.50;6.50;;;9.10;99.90;;;;;;4996188;28;20029;-77
2021/11/10 02:46:48;;;;;;;18.40;5.43;;;9.10;99.90;;;;;;5023561;28;20037;-77
2021/11/10 02:49:13;;;;;;;19.50;5.05;;;9.10;99.90;;;;;;5033451;28;20061;-77
2021/11/10 02:52:04;;;;;;;22.25;5.78;;;9.00;99.90;;;;;;5014820;28;20497;-76
2021/11/10 02:54:33;;;;;;;15.73;5.30;;;9.00;99.90;;;;;;5004208;28;20034;-76
2021/11/10 02:57:03;;;;;;;16.20;6.35;;;9.00;99.90;;;;;;5013896;28;20022;-75
2021/11/10 02:59:29;;;;;;;19.00;6.85;;;9.00;99.90;;;;;;5012550;28;20018;-77
2021/11/10 03:01:56;;;;;;;17.05;5.20;;;9.00;99.90;;;;;;5027936;28;20393;-77
2021/11/10 03:04:26;;;;;;;19.42;5.50;;;9.00;99.90;;;;;;5033569;28;20037;-77
2021/11/10 03:06:53;;;;;;;14.13;5.63;;;9.00;99.90;;;;;;5007018;28;20072;-77
2021/11/10 03:09:21;;;;;;;20.05;5.80;;;8.90;99.90;;;;;;5001845;28;20037;-77
2021/11/10 03:11:47;;;;;;;24.00;5.63;;;8.90;99.90;;;;;;5015558;28;20026;-76
2021/11/10 03:14:14;;;;;;;20.13;5.40;;;8.80;99.90;;;;;;5025778;28;20037;-76
2021/11/10 03:16:40;;;;;;;20.50;5.40;;;8.80;99.90;;;;;;5032981;28;20116;-77
2021/11/10 03:19:05;;;;;;;19.30;6.38;;;8.80;99.90;;;;;;5033594;28;20029;-77
2021/11/10 03:21:31;;;;;;;14.05;4.88;;;8.80;99.90;;;;;;4999719;28;20104;-76
2021/11/10 03:23:57;;;;;;;23.65;6.18;;;8.80;99.90;;;;;;5004987;28;20025;-77
2021/11/10 03:26:23;;;;;;;18.48;6.47;;;8.70;99.90;;;;;;4999720;28;20380;-76
2021/11/10 03:28:49;;;;;;;18.42;6.03;;;8.70;99.90;;;;;;5007133;28;20025;-77
2021/11/10 03:31:15;;;;;;;18.67;6.35;;;8.60;99.90;;;;;;5014725;28;20030;-77
2021/11/10 03:33:40;;;;;;;20.35;6.03;;;8.60;99.90;;;;;;5026954;28;20029;-76
2021/11/10 03:36:06;;;;;;;32.22;6.93;;;8.60;99.90;;;;;;5017157;28;20577;-76
2021/11/10 03:38:31;;;;;;;24.70;6.47;;;8.60;99.90;;;;;;5013255;28;20023;-76
2021/11/10 03:40:57;;;;;;;18.13;6.05;;;8.60;99.90;;;;;;5031460;28;20022;-77
2021/11/10 03:43:23;;;;;;;24.17;6.65;;;8.60;99.90;;;;;;5035482;28;20109;-77
2021/11/10 03:45:48;;;;;;;29.40;7.97;;;8.50;99.90;;;;;;5018843;28;20025;-77
2021/11/10 03:48:17;;;;;;;18.90;6.18;;;8.40;99.90;;;;;;5036099;28;20044;-78
2021/11/10 03:50:44;;;;;;;25.50;7.05;;;8.50;99.90;;;;;;5029505;28;20026;-78
2021/11/10 03:53:10;;;;;;;31.02;6.80;;;8.40;99.90;;;;;;4998900;28;20029;-78
2021/11/10 03:55:36;;;;;;;26.90;6.35;;;8.40;99.90;;;;;;5006739;28;20030;-78
2021/11/10 03:58:03;;;;;;;23.38;6.15;;;8.40;99.90;;;;;;5022198;28;20084;-77
2021/11/10 04:00:29;;;;;;;25.58;6.20;;;8.40;99.90;;;;;;5022708;28;20025;-77
2021/11/10 04:02:55;;;;;;;17.30;6.28;;;8.40;99.90;;;;;;5018146;28;20079;-77
2021/11/10 04:05:21;;;;;;;22.45;5.63;;;8.30;99.90;;;;;;5020105;28;20033;-77
2021/11/10 04:07:47;;;;;;;24.23;6.55;;;8.30;99.90;;;;;;5016698;28;20110;-78
2021/11/10 04:10:13;;;;;;;16.73;5.18;;;8.30;99.90;;;;;;4998622;28;20391;-76
2021/11/10 04:12:38;;;;;;;18.83;6.25;;;8.30;99.90;;;;;;5026763;28;20052;-77
2021/11/10 04:15:04;;;;;;;25.40;6.55;;;8.20;99.90;;;;;;5026134;28;20030;-77
2021/11/10 04:17:30;;;;;;;25.20;6.80;;;8.20;99.90;;;;;;5035228;28;20457;-76
2021/11/10 04:19:56;;;;;;;24.83;6.68;;;8.20;99.90;;;;;;5021043;28;20032;-75
2021/11/10 04:22:23;;;;;;;25.55;6.40;;;8.10;99.90;;;;;;5035142;28;20091;-75
2021/11/10 04:24:49;;;;;;;23.75;7.55;;;8.10;99.90;;;;;;5034759;28;20033;-75
2021/11/10 04:27:18;;;;;;;23.38;6.63;;;8.20;99.90;;;;;;5035698;28;20033;-76
2021/11/10 04:29:45;;;;;;;23.42;6.30;;;8.20;99.90;;;;;;5035395;28;20116;-76
2021/11/10 04:32:11;;;;;;;23.02;6.70;;;8.10;99.90;;;;;;5028434;28;20113;-75
2021/11/10 04:34:36;;;;;;;25.92;5.82;;;8.20;99.90;;;;;;5015947;28;20478;-75
2021/11/10 04:37:03;;;;;;;22.40;6.25;;;8.20;99.90;;;;;;5004663;28;20045;-76
2021/11/10 04:39:29;;;;;;;16.98;5.75;;;8.10;99.90;;;;;;5033200;28;20104;-76
2021/11/10 04:41:54;;;;;;;24.10;7.18;;;8.10;99.90;;;;;;5034885;28;20501;-76
2021/11/10 04:44:20;;;;;;;19.70;5.68;;;8.00;99.90;;;;;;5016481;28;20390;-76
2021/11/10 04:46:46;;;;;;;14.63;6.00;;;8.00;99.90;;;;;;5017237;28;20025;-76
2021/11/10 04:49:14;;;;;;;21.55;6.10;;;8.00;99.90;;;;;;5035371;28;20079;-76
2021/11/10 04:51:40;;;;;;;29.65;6.60;;;7.90;99.90;;;;;;5032210;28;20034;-77
2021/11/10 04:54:08;;;;;;;22.98;5.85;;;7.90;99.90;;;;;;4997700;28;20101;-77
2021/11/10 04:56:36;;;;;;;20.80;5.25;;;7.90;99.90;;;;;;5026966;28;20101;-77
2021/11/10 04:59:02;;;;;;;19.35;5.65;;;7.90;99.90;;;;;;4997349;28;20018;-77
2021/11/10 05:01:27;;;;;;;22.35;5.95;;;7.90;99.90;;;;;;5018649;28;20071;-77
2021/11/10 05:03:55;;;;;;;23.85;6.93;;;7.80;99.90;;;;;;5034458;28;20029;-77
2021/11/10 05:06:21;;;;;;;15.00;5.25;;;7.80;99.90;;;;;;5016398;28;20052;-77
2021/11/10 05:08:47;;;;;;;23.42;6.38;;;7.80;99.90;;;;;;4997964;28;20024;-77
2021/11/10 05:11:13;;;;;;;23.20;5.80;;;7.80;99.90;;;;;;5034351;28;20037;-77
2021/11/10 05:13:39;;;;;;;18.55;6.07;;;7.80;99.90;;;;;;5035085;28;20021;-76
2021/11/10 05:16:05;;;;;;;24.90;7.28;;;7.80;99.90;;;;;;5006393;28;20494;-76
2021/11/10 05:18:31;;;;;;;16.30;6.28;;;7.80;99.90;;;;;;5029930;28;20029;-76
2021/11/10 05:20:56;;;;;;;22.17;6.50;;;7.80;99.90;;;;;;5034648;28;20033;-76
2021/11/10 05:23:22;;;;;;;25.40;6.55;;;7.80;99.90;;;;;;5034836;28;20029;-77
2021/11/10 05:25:49;;;;;;;22.75;6.05;;;7.80;99.90;;;;;;5033306;28;20025;-77
2021/11/10 05:28:15;;;;;;;19.38;5.72;;;7.80;99.90;;;;;;5001171;28;20032;-76
2021/11/10 05:30:40;;;;;;;22.40;5.90;;;7.80;99.90;;;;;;5014363;28;20026;-76
2021/11/10 05:33:06;;;;;;;25.92;6.18;;;7.80;99.90;;;;;;5015064;28;20462;-77
2021/11/10 05:35:32;;;;;;;21.10;6.15;;;7.80;99.90;;;;;;5025626;28;20076;-77
2021/11/10 05:37:58;;;;;;;29.30;6.35;;;7.80;99.90;;;;;;5025910;28;20108;-74
2021/11/10 05:40:24;;;;;;;19.38;5.88;;;7.80;99.90;;;;;;5016860;28;20045;-74
2021/11/10 05:42:49;;;;;;;23.70;6.78;;;7.80;99.90;;;;;;5016620;28;20013;-74
2021/11/10 05:45:15;;;;;;;23.48;5.43;;;7.80;99.90;;;;;;5013912;28;20033;-75
2021/11/10 05:47:40;;;;;;;21.60;5.72;;;7.80;99.90;;;;;;5016362;28;20029;-76
2021/11/10 05:50:08;;;;;;;19.95;4.55;;;7.80;99.90;;;;;;5032251;28;20513;-77
2021/11/10 05:52:35;;;;;;;16.97;6.13;;;7.80;99.90;;;;;;5015489;28;20072;-77
2021/11/10 05:55:00;;;;;;;21.27;5.72;;;7.80;99.90;;;;;;5032853;28;20033;-78
2021/11/10 05:57:26;;;;;;;28.52;6.22;;;7.80;99.90;;;;;;5022448;28;20025;-78
2021/11/10 05:59:52;;;;;;;20.60;5.75;;;7.80;99.90;;;;;;5033447;28;20104;-75
2021/11/10 06:02:20;;;;;;;18.90;6.03;;;7.80;99.90;;;;;;5033588;28;20112;-76
2021/11/10 06:04:45;;;;;;;21.85;7.25;;;7.80;99.90;;;;;;5033972;28;20032;-75
2021/11/10 06:07:11;;;;;;;18.63;5.13;;;7.80;99.90;;;;;;5009104;28;20033;-76
2021/11/10 06:09:37;;;;;;;15.73;4.93;;;7.80;99.90;;;;;;4996701;28;20025;-76
2021/11/10 06:12:03;;;;;;;25.88;5.72;;;7.80;99.90;;;;;;4996260;28;20034;-76
2021/11/10 06:14:28;;;;;;;26.02;6.07;;;7.80;99.90;;;;;;5014699;28;20114;-79
2021/11/10 06:16:54;;;;;;;17.45;4.65;;;7.90;99.90;;;;;;4996768;28;20022;-79
2021/11/10 06:19:20;;;;;;;11.57;4.75;;;7.90;99.90;;;;;;4996863;28;20112;-78
2021/11/10 06:21:49;;;;;;;15.27;4.50;;;7.90;99.90;;;;;;4996899;28;20030;-80
2021/11/10 06:24:17;;;;;;;;;;;7.90;99.90;;;;;;5015009;28;20037;-80
2021/11/10 06:26:43;;;;;;;17.42;4.72;;;9.50;99.90;;;;;;4997310;28;19953;-78
2021/11/10 06:29:09;;;;;;;23.42;6.97;;;7.80;99.90;;;;;;5013976;28;20033;-79
2021/11/10 06:31:34;;;;;;;15.48;5.47;;;7.90;99.90;;;;;;4996575;28;20058;-78
2021/11/10 06:34:03;;;;;;;13.73;5.53;;;7.90;99.90;;;;;;4996354;28;20037;-78
2021/11/10 06:36:28;;;;;;;22.55;6.47;;;7.90;99.90;;;;;;4996981;28;20025;-78
2021/11/10 06:38:54;;;;;;;18.80;4.45;;;7.90;99.90;;;;;;5003015;28;20025;-78
2021/11/10 06:41:20;;;;;;;16.63;5.63;;;7.80;99.90;;;;;;4997002;28;20033;-78
2021/11/10 06:43:49;;;;;;;17.27;5.28;;;7.90;99.90;;;;;;4996520;28;20034;-78
2021/11/10 06:46:16;;;;;;;24.27;4.28;;;7.80;99.90;;;;;;5014228;28;20029;-78
2021/11/10 06:48:43;;;;;;;17.65;4.78;;;7.80;99.90;;;;;;4996403;28;20037;-78
2021/11/10 06:51:09;;;;;;;18.00;4.50;;;7.70;99.90;;;;;;5014256;28;20033;-77
2021/11/10 06:53:35;;;;;;;25.55;4.90;;;7.70;99.90;;;;;;5012208;28;20033;-76
2021/11/10 06:56:02;;;;;;;18.38;5.55;;;7.70;99.90;;;;;;5034237;28;20072;-76
2021/11/10 06:58:28;;;;;;;20.00;6.32;;;7.60;99.90;;;;;;5015144;28;20029;-76
2021/11/10 07:00:53;;;;;;;26.63;5.68;;;7.60;99.90;;;;;;5015635;28;20024;-76
2021/11/10 07:03:19;;;;;;;12.13;4.45;;;7.60;99.90;;;;;;5015858;28;20466;-75
2021/11/10 07:05:44;;;;;;;21.70;5.85;;;7.60;99.90;;;;;;5033358;28;20030;-75
2021/11/10 07:08:10;;;;;;;18.20;4.57;;;7.70;99.90;;;;;;5018165;28;20059;-76
2021/11/10 07:10:36;;;;;;;14.00;3.47;;;7.70;99.90;;;;;;5019272;28;20033;-75
2021/11/10 07:13:02;;;;;;;16.50;4.70;;;7.80;99.90;;;;;;5037397;28;20049;-75
2021/11/10 07:15:27;;;;;;;16.52;4.50;;;7.70;99.90;;;;;;5019585;28;20026;-75
2021/11/10 07:17:53;;;;;;;18.45;4.03;;;7.80;99.90;;;;;;5019303;28;20033;-74
2021/11/10 07:20:20;;;;;;;16.20;4.97;;;7.80;99.90;;;;;;5037182;28;20430;-74
2021/11/10 07:22:46;;;;;;;16.08;4.82;;;7.80;99.90;;;;;;5036901;28;20067;-74
2021/11/10 07:25:11;;;;;;;15.07;4.35;;;7.80;99.90;;;;;;5037351;28;20116;-75
2021/11/10 07:27:37;;;;;;;24.08;5.20;;;7.80;99.90;;;;;;5018777;28;20026;-75
2021/11/10 07:30:05;;;;;;;20.33;5.00;;;7.80;99.90;;;;;;5036482;28;20025;-76
2021/11/10 07:32:32;;;;;;;11.53;3.63;;;7.80;99.90;;;;;;5036215;28;20092;-76
2021/11/10 07:34:58;;;;;;;14.70;4.22;;;7.80;99.90;;;;;;5036302;28;20104;-76
2021/11/10 07:37:23;;;;;;;20.27;5.63;;;7.70;99.90;;;;;;5036807;28;20061;-76
2021/11/10 07:39:49;;;;;;;16.13;4.10;;;7.80;99.90;;;;;;5036427;28;20497;-76
2021/11/10 07:42:15;;;;;;;21.17;4.35;;;7.80;99.90;;;;;;5018356;28;20025;-76
2021/11/10 07:44:41;;;;;;;18.52;4.80;;;7.90;99.90;;;;;;5036178;28;20060;-76
2021/11/10 07:47:11;;;;;;;15.68;4.35;;;7.90;99.90;;;;;;5036108;28;20025;-76
2021/11/10 07:49:37;;;;;;;17.98;4.82;;;7.90;99.90;;;;;;5035946;28;20074;-75
2021/11/10 07:52:05;;;;;;;24.35;4.47;;;8.00;99.90;;;;;;5036000;28;20029;-76
2021/11/10 07:54:31;;;;;;;21.50;5.18;;;8.00;99.90;;;;;;5036262;28;20025;-76
2021/11/10 07:56:56;;;;;;;28.35;6.55;;;8.00;99.90;;;;;;5018444;28;20533;-76
2021/11/10 07:59:22;;;;;;;23.48;5.00;;;8.00;99.90;;;;;;5037212;28;20052;-76
2021/11/10 08:01:48;;;;;;;21.15;4.93;;;8.10;99.90;;;;;;5036310;28;20107;-76
2021/11/10 08:04:13;;;;;;;18.77;5.32;;;8.10;99.90;;;;;;5036589;28;20152;-76
2021/11/10 08:06:39;;;;;;;21.73;5.35;;;8.20;99.90;;;;;;5036386;28;20032;-75
2021/11/10 08:09:04;;;;;;;21.25;5.47;;;8.30;99.90;;;;;;5036305;28;20040;-75
2021/11/10 08:11:30;;;;;;;21.92;5.25;;;8.30;99.90;;;;;;5036377;28;20033;-76
2021/11/10 08:13:57;;;;;;;24.88;6.13;;;8.30;99.90;;;;;;5018668;28;20061;-76
2021/11/10 08:16:23;;;;;;;18.17;6.25;;;8.30;99.90;;;;;;5018544;28;20029;-76
2021/11/10 08:18:48;;;;;;;19.63;5.68;;;8.30;99.90;;;;;;5035707;28;20025;-76
2021/11/10 08:21:14;;;;;;;26.30;6.93;;;8.30;99.90;;;;;;5035743;28;20040;-76
2021/11/10 08:23:39;;;;;;;23.02;6.20;;;8.40;99.90;;;;;;5017993;28;20063;-76
2021/11/10 08:26:08;;;;;;;23.60;6.10;;;8.40;99.90;;;;;;5035903;28;20103;-76
2021/11/10 08:28:34;;;;;;;21.70;5.50;;;9.50;99.90;;;;;;5035517;28;20033;-76
2021/11/10 08:31:00;;;;;;;17.23;5.97;;;8.40;99.90;;;;;;5017876;28;20039;-76
2021/11/10 08:33:27;;;;;;;24.10;6.18;;;8.40;99.90;;;;;;5035336;28;20025;-76
2021/11/10 08:35:52;;;;;;;27.20;6.20;;;8.40;99.90;;;;;;5017646;28;20021;-76
2021/11/10 08:38:18;;;;;;;23.92;7.28;;;8.40;99.90;;;;;;5035624;28;20448;-76
2021/11/10 08:40:45;;;;;;;18.83;5.95;;;8.40;99.90;;;;;;5035172;28;20025;-76
2021/11/10 08:43:12;;;;;;;21.13;5.30;;;8.40;99.90;;;;;;5017798;28;20025;-76
2021/11/10 08:45:40;;;;;;;22.23;6.00;;;8.40;99.90;;;;;;5017848;28;20010;-76
2021/11/10 08:48:06;;;;;;;18.27;5.70;;;8.40;99.90;;;;;;5017763;28;20075;-76
2021/11/10 08:50:39;;;;;;;21.48;6.85;;;8.40;99.90;;;;;;5035384;28;20022;-76
2021/11/10 08:53:05;;;;;;;27.30;6.35;;;8.40;99.90;;;;;;5035041;28;20028;-76
2021/11/10 08:55:30;;;;;;;21.45;7.72;;;8.40;99.90;;;;;;5017508;28;20077;-76
2021/11/10 08:57:56;;;;;;;24.92;6.50;;;8.50;99.90;;;;;;5035576;28;20049;-76
2021/11/10 09:00:26;;;;;;;25.38;7.03;;;8.50;99.90;;;;;;5017323;28;20014;-76
2021/11/10 09:02:52;;;;;;;20.15;7.15;;;8.60;99.90;;;;;;5017118;28;20028;-76
2021/11/10 09:05:19;;;;;;;27.15;7.65;;;8.60;99.90;;;;;;5034988;28;20030;-76
2021/11/10 09:07:45;;;;;;;25.33;7.47;;;8.60;99.90;;;;;;5035170;28;20025;-75
2021/11/10 09:10:12;;;;;;;30.85;7.68;;;8.70;99.90;;;;;;5034951;28;20433;-76
2021/11/10 09:12:39;;;;;;;27.42;8.10;;;8.70;99.90;;;;;;5016828;28;20116;-76
2021/11/10 09:15:07;;;;;;;36.17;8.57;;;8.70;99.90;;;;;;5017137;28;20076;-76
2021/11/10 09:17:35;;;;;;;21.13;7.03;;;8.70;99.90;;;;;;5017310;28;20512;-76
2021/11/10 09:20:29;;;;;;;28.73;8.85;;;8.80;99.90;;;;;;5017966;28;20021;-78
2021/11/10 09:22:56;;;;;;;24.63;7.80;;;8.80;99.90;;;;;;5013758;28;20025;-78
2021/11/10 09:25:23;;;;;;;41.92;10.60;;;8.90;99.90;;;;;;5034876;28;20059;-78
2021/11/10 09:27:49;;;;;;;34.65;9.73;;;9.00;99.90;;;;;;5034732;28;20551;-78
2021/11/10 09:30:18;;;;;;;30.48;9.88;;;9.00;99.90;;;;;;5034359;28;20029;-78
2021/11/10 09:32:45;;;;;;;31.98;10.35;;;9.00;99.90;;;;;;5017062;28;20037;-78
2021/11/10 09:35:13;;;;;;;30.15;9.02;;;9.10;99.90;;;;;;5035104;28;20028;-78
2021/11/10 09:37:39;;;;;;;31.48;10.20;;;9.10;99.90;;;;;;5035168;28;20363;-78
2021/11/10 09:40:07;;;;;;;36.38;9.75;;;9.20;99.90;;;;;;5017309;28;20470;-78
2021/11/10 09:42:36;;;;;;;41.25;11.43;;;9.20;99.90;;;;;;5017072;28;20025;-78
2021/11/10 09:45:04;;;;;;;39.17;9.88;;;9.30;99.90;;;;;;5020769;28;20529;-78
2021/11/10 09:47:30;;;;;;;32.80;10.18;;;9.40;99.90;;;;;;5015040;28;20542;-78
2021/11/10 09:49:55;;;;;;;28.27;9.50;;;9.40;99.90;;;;;;5014572;28;20057;-78
2021/11/10 09:52:21;;;;;;;24.67;7.53;;;9.60;99.90;;;;;;4997480;28;20021;-78
2021/11/10 09:54:47;;;;;;;30.60;10.30;;;9.70;99.90;;;;;;5015427;28;20470;-78
2021/11/10 09:57:13;;;;;;;36.80;10.45;;;10.70;99.90;;;;;;4997616;28;20055;-78
2021/11/10 09:59:39;;;;;;;38.22;9.52;;;9.90;99.90;;;;;;4997446;28;20049;-78
2021/11/10 10:02:11;;;;;;;30.83;8.48;;;10.00;99.90;;;;;;4997744;28;20511;-78
2021/11/10 10:04:42;;;;;;;23.38;7.38;;;10.10;99.90;;;;;;4997874;28;20471;-78
2021/11/10 10:07:12;;;;;;;20.85;6.70;;;10.20;99.90;;;;;;4997729;28;20028;-78
2021/11/10 10:09:38;;;;;;;23.88;6.63;;;10.20;99.90;;;;;;5015248;28;20030;-78
2021/11/10 10:12:06;;;;;;;21.88;6.15;;;10.30;99.90;;;;;;5015612;28;20053;-80
2021/11/10 10:14:33;;;;;;;25.00;6.78;;;10.30;99.90;;;;;;4998087;28;20029;-79
2021/11/10 10:17:07;;;;;;;20.85;6.07;;;10.30;99.90;;;;;;5015334;28;20113;-78
2021/11/10 10:19:43;;;;;;;22.15;6.18;;;10.30;99.90;;;;;;4997981;28;20026;-78
2021/11/10 10:22:18;;;;;;;18.88;7.05;;;10.40;99.90;;;;;;5014862;28;20030;-78
2021/11/10 10:24:53;;;;;;;21.95;5.72;;;10.40;99.90;;;;;;5016032;28;20493;-78
2021/11/10 10:27:33;;;;;;;24.60;6.30;;;10.40;99.90;;;;;;5014278;28;20026;-78
2021/11/10 10:30:35;;;;;;;19.63;5.25;;;10.40;99.90;;;;;;4997126;28;20057;-78
2021/11/10 10:33:17;;;;;;;22.38;5.43;;;10.40;99.90;;;;;;5031564;28;20053;-78
2021/11/10 10:35:46;;;;;;;20.30;4.95;;;10.50;99.90;;;;;;5035495;28;20133;-79
2021/11/10 10:38:19;;;;;;;29.77;6.65;;;10.50;99.90;;;;;;5017914;28;20405;-78
2021/11/10 10:40:48;;;;;;;18.45;4.47;;;10.60;99.90;;;;;;5035274;28;20018;-76
2021/11/10 10:43:15;;;;;;;20.77;4.70;;;10.60;99.90;;;;;;5036390;28;20112;-77
2021/11/10 10:45:42;;;;;;;16.63;4.60;;;10.70;99.90;;;;;;5012550;28;20022;-76
2021/11/10 10:48:14;;;;;;;15.30;5.55;;;10.70;99.90;;;;;;5034979;28;20420;-76
2021/11/10 10:50:41;;;;;;;18.05;5.45;;;10.80;99.90;;;;;;5039454;28;20021;-76
2021/11/10 10:53:09;;;;;;;19.60;5.20;;;10.80;99.90;;;;;;5037824;28;20540;-76
2021/11/10 10:55:47;;;;;;;17.95;4.65;;;10.90;99.90;;;;;;5019443;28;20021;-76
2021/11/10 10:58:33;;;;;;;16.67;4.90;;;10.90;99.90;;;;;;5037024;28;20038;-76
2021/11/10 11:01:18;;;;;;;19.30;6.05;;;10.90;99.90;;;;;;5019695;28;20125;-76
2021/11/10 11:03:54;;;;;;;18.05;5.05;;;11.00;99.90;;;;;;5037107;28;20113;-77
2021/11/10 11:06:29;;;;;;;17.95;4.95;;;11.00;99.90;;;;;;5036954;28;20033;-77
2021/11/10 11:08:58;;;;;;;16.92;4.88;;;11.00;99.90;;;;;;5037017;28;20397;-76
2021/11/10 11:11:54;;;;;;;19.58;5.15;;;11.10;99.90;;;;;;5037806;28;20021;-78
2021/11/10 11:15:09;;;;;;;15.85;4.93;;;11.10;99.90;;;;;;5037342;28;20091;-77
2021/11/10 11:17:28;;;;;;;18.55;5.43;;;11.10;99.90;;;;;;5023291;28;20538;-77
2021/11/10 11:20:09;;;;;;;14.43;4.57;;;11.00;99.90;;;;;;5037683;28;20025;-77
2021/11/10 11:22:40;;;;;;;17.27;5.03;;;10.90;99.90;;;;;;5019980;28;20028;-77
2021/11/10 11:25:12;;;;;;;14.70;4.97;;;10.90;99.90;;;;;;5038045;28;20071;-77
2021/11/10 11:27:39;;;;;;;18.27;5.20;;;10.90;99.90;;;;;;5000485;28;20125;-77
2021/11/10 11:30:13;;;;;;;19.58;5.57;;;10.90;99.90;;;;;;5017929;28;20436;-77
2021/11/10 11:32:49;;;;;;;24.77;5.50;;;10.90;99.90;;;;;;5018055;28;20033;-77
2021/11/10 11:35:31;;;;;;;15.23;5.13;;;10.90;99.90;;;;;;5018511;28;20068;-76
2021/11/10 11:38:00;;;;;;;18.45;4.30;;;11.00;99.90;;;;;;4998844;28;20057;-76
2021/11/10 11:40:29;;;;;;;15.18;4.45;;;11.00;99.90;;;;;;5016498;28;20065;-76
2021/11/10 11:42:57;;;;;;;14.20;4.25;;;11.10;99.90;;;;;;5018190;28;20025;-76
2021/11/10 11:45:23;;;;;;;15.98;5.30;;;11.10;99.90;;;;;;5018414;28;20112;-76
2021/11/10 11:47:50;;;;;;;19.98;6.38;;;11.10;99.90;;;;;;5035857;28;20029;-76
2021/11/10 11:50:17;;;;;;;20.20;5.72;;;11.10;99.90;;;;;;5018134;28;20502;-76
2021/11/10 11:52:49;;;;;;;17.15;5.20;;;11.10;99.90;;;;;;5035348;28;20022;-76
2021/11/10 11:55:25;;;;;;;19.10;5.15;;;11.10;99.90;;;;;;5035805;28;20101;-76
2021/11/10 11:58:03;;;;;;;21.17;5.13;;;11.10;99.90;;;;;;5017950;28;20482;-76
2021/11/10 12:00:38;;;;;;;21.65;5.20;;;11.00;99.90;;;;;;5018567;28;20022;-76
2021/11/10 12:03:23;;;;;;;19.55;6.30;;;11.10;99.90;;;;;;5018682;28;20025;-78
2021/11/10 12:06:01;;;;;;;16.38;5.45;;;11.00;99.90;;;;;;5035696;28;20029;-77
2021/11/10 12:08:45;;;;;;;13.75;4.82;;;11.10;99.90;;;;;;5017827;28;20028;-77
2021/11/10 12:11:19;;;;;;;15.20;4.63;;;11.00;99.90;;;;;;5035748;28;20033;-77
2021/11/10 12:14:06;;;;;;;20.92;4.85;;;11.00;99.90;;;;;;5035702;28;20026;-77
2021/11/10 12:16:50;;;;;;;19.20;4.97;;;11.10;99.90;;;;;;5035385;28;20026;-78
2021/11/10 12:19:33;;;;;;;14.52;4.65;;;11.00;99.90;;;;;;5037274;28;20034;-79
2021/11/10 12:22:08;;;;;;;15.88;4.68;;;11.10;99.90;;;;;;5037491;28;20036;-79
2021/11/10 12:24:52;;;;;;;16.85;4.85;;;11.10;99.90;;;;;;5018681;28;20064;-77
2021/11/10 12:27:20;;;;;;;13.00;4.05;;;11.10;99.90;;;;;;5018891;28;20033;-79
2021/11/10 12:29:51;;;;;;;23.52;5.18;;;11.10;99.90;;;;;;5035790;28;20092;-77
2021/11/10 12:32:18;;;;;;;32.80;6.20;;;11.10;99.90;;;;;;5038995;28;20486;-78
2021/11/10 12:34:50;;;;;;;13.85;4.18;;;11.10;99.90;;;;;;5039314;28;20022;-79
2021/11/10 12:37:34;;;;;;;17.90;4.10;;;11.10;99.90;;;;;;5021106;28;20031;-78
2021/11/10 12:40:17;;;;;;;18.17;5.22;;;11.20;99.90;;;;;;5037802;28;20438;-78
2021/11/10 12:42:53;;;;;;;20.90;5.63;;;11.10;99.90;;;;;;5038339;28;20025;-78
2021/11/10 12:45:27;;;;;;;21.77;4.32;;;11.10;99.90;;;;;;5020200;28;20025;-78
2021/11/10 12:47:58;;;;;;;14.85;4.70;;;11.10;99.90;;;;;;5038150;28;20067;-78